Time;durP1;ratioP1;P1;durP2;ratioP2;P2;SDS_P1;SDS_P2;PMS_P1;PMS_P2;Temp;Humidity;BMP_temperature;BMP_pressure;BME280_temperature;BME280_humidity;BME280_pressure;Samples;Min_cycle;Max_cycle;Signal;HPM_P1;HPM_P2
2022/07/26 00:00:18;;;;;;;6.28;1.77;;;;;;;20.29;72.73;100153.94;7763626;22;20019;-90
2022/07/26 00:03:21;;;;;;;8.43;1.50;;;;;;;20.26;73.39;100149.91;7736355;22;20211;-90
2022/07/26 00:06:24;;;;;;;7.72;1.77;;;;;;;20.25;73.63;100147.44;7761230;22;20023;-89
2022/07/26 00:09:26;;;;;;;4.85;2.05;;;;;;;20.20;73.18;100142.81;7761930;22;20019;-89
2022/07/26 00:12:29;;;;;;;5.32;1.60;;;;;;;20.19;73.89;100146.41;7760591;22;20225;-89
2022/07/26 00:15:31;;;;;;;6.28;2.03;;;;;;;20.15;74.61;100143.38;7754830;22;20019;-89
2022/07/26 00:18:32;;;;;;;6.65;1.77;;;;;;;20.11;74.03;100136.88;7761489;22;20015;-90
2022/07/26 00:21:36;;;;;;;6.38;1.60;;;;;;;20.10;74.74;100142.31;7731864;22;20101;-89
2022/07/26 00:24:41;;;;;;;3.65;1.40;;;;;;;20.07;73.26;100138.25;7731895;22;20212;-90
2022/07/26 00:27:43;;;;;;;3.75;1.40;;;;;;;20.03;73.97;100144.09;7756718;22;20346;-89
2022/07/26 00:30:45;;;;;;;5.75;1.60;;;;;;;19.98;74.18;100144.69;7755675;22;20396;-90
2022/07/26 00:33:48;;;;;;;4.97;1.55;;;;;;;19.97;74.71;100150.91;7754877;22;20290;-90
2022/07/26 00:36:50;;;;;;;4.95;1.60;;;;;;;19.93;74.45;100158.38;7754942;22;20020;-90
2022/07/26 00:39:52;;;;;;;4.70;1.38;;;;;;;19.97;74.30;100153.56;7719037;22;20042;-90
2022/07/26 00:42:54;;;;;;;4.40;1.60;;;;;;;19.98;73.30;100156.00;7757054;22;20024;-90
2022/07/26 00:45:57;;;;;;;5.03;1.58;;;;;;;19.98;73.52;100155.19;7703756;22;20190;-90
2022/07/26 00:48:59;;;;;;;3.72;1.23;;;;;;;20.01;71.74;100160.06;7727848;22;20478;-89
2022/07/26 00:52:02;;;;;;;3.85;1.30;;;;;;;20.08;69.73;100157.47;7750463;22;20016;-89
2022/07/26 00:55:06;;;;;;;4.22;1.40;;;;;;;20.10;68.80;100163.31;7722226;22;20363;-89
2022/07/26 00:58:08;;;;;;;3.40;1.00;;;;;;;20.09;68.62;100159.09;7724080;22;20175;-90
2022/07/26 01:01:14;;;;;;;3.92;1.13;;;;;;;20.08;68.51;100166.16;7724518;22;20345;-90
2022/07/26 01:04:16;;;;;;;6.50;1.08;;;;;;;20.11;67.33;100162.34;7721553;22;20363;-90
2022/07/26 01:07:21;;;;;;;3.78;1.10;;;;;;;20.10;67.66;100166.78;7725644;22;20020;-91
2022/07/26 01:10:23;;;;;;;6.50;1.00;;;;;;;20.09;67.84;100162.53;7752716;22;20015;-90
2022/07/26 01:13:26;;;;;;;2.63;0.90;;;;;;;20.12;67.01;100153.44;7727320;22;20554;-89
2022/07/26 01:16:36;;;;;;;3.40;1.00;;;;;;;20.20;66.49;100150.69;7725256;22;20484;-89
2022/07/26 01:19:38;;;;;;;4.07;1.00;;;;;;;20.33;65.70;100160.47;7725001;22;20344;-89
2022/07/26 01:22:40;;;;;;;5.05;0.93;;;;;;;20.24;66.53;100154.53;7751456;22;20020;-90
2022/07/26 01:25:45;;;;;;;2.85;0.80;;;;;;;20.17;67.02;100151.03;7750518;22;20469;-90
2022/07/26 01:28:56;;;;;;;2.22;1.02;;;;;;;20.09;67.19;100159.91;7751570;22;20182;-93
2022/07/26 01:31:58;;;;;;;3.83;0.93;;;;;;;20.06;67.61;100160.28;7724177;22;20098;-92
2022/07/26 01:34:59;;;;;;;3.33;1.02;;;;;;;20.05;67.79;100155.22;7752550;22;20295;-89
2022/07/26 01:38:02;;;;;;;6.13;1.00;;;;;;;20.06;67.56;100162.09;7749557;22;20228;-91
2022/07/26 01:41:04;;;;;;;4.80;1.30;;;;;;;20.02;68.22;100164.28;7708655;23;20177;-89
2022/07/26 01:44:06;;;;;;;3.13;1.17;;;;;;;20.05;68.02;100165.72;7683767;23;20446;-90
2022/07/26 01:47:21;;;;;;;2.85;1.00;;;;;;;19.99;68.53;100168.13;7657563;23;20026;-89
2022/07/26 01:51:07;;;;;;;2.10;0.88;;;;;;;20.09;68.16;100164.34;7679581;23;20190;-89
2022/07/26 01:54:09;;;;;;;3.65;1.00;;;;;;;20.00;68.81;100166.31;7681515;23;20024;-90
2022/07/26 01:57:11;;;;;;;1.23;0.80;;;;;;;19.94;69.22;100162.63;7703287;23;20342;-89
2022/07/26 02:00:14;;;;;;;3.53;1.20;;;;;;;19.92;69.54;100164.63;7706873;23;20020;-89
2022/07/26 02:03:16;;;;;;;5.03;1.10;;;;;;;19.94;69.63;100170.50;7680021;23;20244;-89
2022/07/26 02:06:19;;;;;;;6.13;1.85;;;;;;;19.92;69.96;100175.13;7678840;23;20175;-89
2022/07/26 02:09:21;;;;;;;3.70;1.00;;;;;;;19.91;70.13;100168.28;7679391;23;20542;-89
2022/07/26 02:12:27;;;;;;;4.72;1.02;;;;;;;19.78;70.26;100166.34;7707017;23;20540;-89
2022/07/26 02:15:30;;;;;;;5.65;1.10;;;;;;;19.69;71.42;100171.94;7703618;23;20063;-90
2022/07/26 02:18:32;;;;;;;3.10;1.00;;;;;;;19.66;72.26;100172.28;7704496;23;20020;-89
2022/07/26 02:21:36;;;;;;;6.50;1.10;;;;;;;19.59;72.72;100173.03;7678522;23;20217;-90
2022/07/26 02:24:37;;;;;;;2.78;0.90;;;;;;;19.68;72.81;100183.44;7702193;23;20377;-92
2022/07/26 02:27:39;;;;;;;4.00;1.17;;;;;;;19.61;72.67;100174.66;7703378;23;20012;-89
2022/07/26 02:30:42;;;;;;;4.50;1.30;;;;;;;19.69;72.23;100171.94;7700796;23;20099;-89
2022/07/26 02:33:44;;;;;;;6.78;1.10;;;;;;;19.62;72.63;100173.66;7675196;23;20252;-89
2022/07/26 02:36:47;;;;;;;4.80;1.70;;;;;;;19.57;73.13;100180.28;7698052;23;20451;-89
2022/07/26 02:39:49;;;;;;;2.33;1.10;;;;;;;19.61;73.65;100188.59;7710865;22;20084;-88
2022/07/26 02:42:51;;;;;;;3.75;1.02;;;;;;;19.63;73.88;100181.34;7735851;22;20028;-88
2022/07/26 02:45:52;;;;;;;2.17;0.95;;;;;;;19.55;73.66;100197.22;7737104;22;20042;-88
2022/07/26 02:49:03;;;;;;;6.97;1.30;;;;;;;19.54;74.91;100193.78;7734480;22;20089;-88
2022/07/26 02:52:05;;;;;;;6.95;1.50;;;;;;;19.52;74.59;100193.16;7735142;22;20019;-89
2022/07/26 02:55:07;;;;;;;4.53;1.33;;;;;;;19.45;75.17;100202.81;7735198;22;20031;-88
2022/07/26 02:58:08;;;;;;;4.22;1.20;;;;;;;19.48;75.52;100205.06;7706097;22;20451;-88
2022/07/26 03:01:10;;;;;;;2.13;0.90;;;;;;;19.47;75.98;100202.59;7732496;22;20472;-89
2022/07/26 03:04:14;;;;;;;3.83;1.20;;;;;;;19.39;76.26;100207.97;7681127;22;20268;-88
2022/07/26 03:07:17;;;;;;;5.25;1.38;;;;;;;19.34;77.35;100209.34;7731551;22;20210;-89
2022/07/26 03:10:19;;;;;;;5.25;1.30;;;;;;;19.29;77.61;100208.28;7728822;22;20085;-88
2022/07/26 03:13:21;;;;;;;4.63;1.58;;;;;;;19.24;78.04;100216.72;7729380;22;20338;-88
2022/07/26 03:16:23;;;;;;;4.10;1.25;;;;;;;19.21;78.63;100226.78;7679139;22;20023;-89
2022/07/26 03:19:31;;;;;;;3.70;1.10;;;;;;;19.15;79.47;100217.81;7704393;22;20216;-88
2022/07/26 03:22:36;;;;;;;2.75;1.33;;;;;;;19.20;78.85;100210.19;7728218;22;20311;-88
2022/07/26 03:25:38;;;;;;;7.32;1.55;;;;;;;19.27;79.57;100226.84;7730084;22;20284;-88
2022/07/26 03:28:41;;;;;;;5.03;1.52;;;;;;;19.27;79.40;100218.16;7727170;22;20094;-88
2022/07/26 03:31:44;;;;;;;4.63;1.30;;;;;;;19.31;79.30;100212.34;7697614;22;20094;-88
2022/07/26 03:34:46;;;;;;;3.53;1.35;;;;;;;19.25;79.53;100213.06;7726791;22;20308;-88
2022/07/26 03:37:49;;;;;;;6.85;1.92;;;;;;;19.27;79.35;100211.09;7724957;22;20137;-88
2022/07/26 03:40:55;;;;;;;7.10;1.80;;;;;;;19.19;80.10;100221.69;7673725;22;20363;-88
2022/07/26 03:43:57;;;;;;;7.30;1.92;;;;;;;19.29;80.07;100216.97;7673589;22;20109;-89
2022/07/26 03:47:00;;;;;;;3.42;1.45;;;;;;;19.31;79.88;100216.78;7723034;22;20094;-88
2022/07/26 03:50:03;;;;;;;4.55;1.40;;;;;;;19.33;80.33;100214.81;7697397;22;20209;-89
2022/07/26 03:53:06;;;;;;;4.78;1.50;;;;;;;19.31;80.19;100219.41;7725060;22;20181;-88
2022/07/26 03:59:29;;;;;;;4.32;1.73;;;;;;;19.37;80.44;100226.53;7725392;22;20208;-88
2022/07/26 04:02:31;;;;;;;4.22;1.48;;;;;;;19.37;80.75;100227.34;7724532;22;20130;-89
2022/07/26 04:05:34;;;;;;;6.65;1.60;;;;;;;19.35;81.44;100233.78;7694564;22;20555;-88
2022/07/26 04:08:36;;;;;;;5.20;1.60;;;;;;;19.35;81.46;100232.00;7698127;22;20088;-89
2022/07/26 04:11:39;;;;;;;7.65;1.90;;;;;;;19.48;81.41;100228.69;7722942;22;20028;-89
2022/07/26 04:14:41;;;;;;;7.25;2.20;;;;;;;19.41;82.20;100224.38;7719182;22;20229;-88
2022/07/26 04:17:44;;;;;;;4.32;1.67;;;;;;;19.45;82.19;100234.31;7684776;22;20019;-89
2022/07/26 04:20:46;;;;;;;7.63;2.05;;;;;;;19.51;81.85;100233.56;7698558;22;20337;-88
2022/07/26 04:23:48;;;;;;;7.82;2.03;;;;;;;19.51;81.92;100230.94;7695209;22;20042;-89
2022/07/26 04:26:53;;;;;;;6.40;2.38;;;;;;;19.58;82.18;100234.44;7695968;22;20265;-89
2022/07/26 04:29:56;;;;;;;4.53;2.42;;;;;;;19.56;82.19;100225.13;7698146;22;20182;-91
2022/07/26 04:32:58;;;;;;;7.13;2.00;;;;;;;19.42;83.13;100224.16;7696126;22;20330;-88
2022/07/26 04:36:00;;;;;;;4.82;2.00;;;;;;;19.56;82.76;100231.19;7721596;22;20086;-88
2022/07/26 04:39:03;;;;;;;5.65;2.40;;;;;;;19.54;82.56;100230.53;7695460;22;20070;-89
2022/07/26 04:42:06;;;;;;;12.30;2.58;;;;;;;19.62;82.77;100229.59;7693617;22;20279;-89
2022/07/26 04:45:09;;;;;;;8.27;2.47;;;;;;;19.54;82.90;100225.28;7693579;22;20304;-89
2022/07/26 04:48:12;;;;;;;8.60;2.70;;;;;;;19.59;83.59;100225.53;7719779;22;20197;-88
2022/07/26 04:51:15;;;;;;;5.97;2.20;;;;;;;19.66;82.94;100225.63;7696143;22;20197;-88
2022/07/26 04:54:19;;;;;;;3.88;2.33;;;;;;;19.66;82.83;100228.25;7722302;22;20582;-90
2022/07/26 04:57:22;;;;;;;7.00;2.22;;;;;;;19.66;83.04;100223.00;7719872;22;20257;-89
2022/07/26 05:00:24;;;;;;;5.57;2.45;;;;;;;19.61;83.28;100222.75;7717919;22;20174;-89
2022/07/26 05:03:26;;;;;;;7.95;3.03;;;;;;;19.68;82.61;100215.78;7694856;22;20443;-89
2022/07/26 05:06:31;;;;;;;7.15;2.30;;;;;;;19.71;82.45;100218.00;7721451;22;20281;-89
2022/07/26 05:09:33;;;;;;;5.60;1.92;;;;;;;19.76;82.90;100212.19;7693247;22;20181;-89
2022/07/26 05:12:36;;;;;;;7.82;2.15;;;;;;;19.77;82.79;100221.69;7666032;22;20169;-89
2022/07/26 05:15:39;;;;;;;7.25;2.38;;;;;;;19.73;82.45;100216.03;7691514;22;20410;-89
2022/07/26 05:18:44;;;;;;;5.53;2.20;;;;;;;19.81;82.86;100224.78;7669607;22;20292;-89
2022/07/26 05:21:50;;;;;;;5.82;2.42;;;;;;;19.85;82.23;100216.31;7694890;22;20405;-89
2022/07/26 05:24:52;;;;;;;7.75;2.55;;;;;;;19.88;81.95;100220.38;7720500;22;20019;-89
2022/07/26 05:27:55;;;;;;;5.70;2.28;;;;;;;19.94;82.34;100222.25;7721539;22;20243;-89
2022/07/26 05:30:57;;;;;;;9.50;2.70;;;;;;;20.06;81.47;100222.53;7693429;22;20086;-89
2022/07/26 05:34:00;;;;;;;7.03;2.50;;;;;;;20.08;81.93;100226.59;7663620;22;20109;-89
2022/07/26 05:37:02;;;;;;;11.70;2.75;;;;;;;20.18;81.44;100236.78;7721322;22;20365;-89
2022/07/26 05:40:06;;;;;;;7.72;2.30;;;;;;;20.21;81.48;100229.31;7719878;22;20643;-89
2022/07/26 05:43:08;;;;;;;10.63;2.50;;;;;;;20.21;82.07;100242.47;7682713;23;20101;-88
2022/07/26 05:46:12;;;;;;;6.60;2.15;;;;;;;20.22;82.53;100238.00;7680145;23;20567;-89
2022/07/26 05:49:14;;;;;;;8.38;1.95;;;;;;;20.19;82.14;100239.22;7650416;23;20268;-89
2022/07/26 05:52:17;;;;;;;5.90;2.22;;;;;;;20.04;82.97;100229.81;7655408;23;20197;-89
2022/07/26 05:55:23;;;;;;;8.35;2.20;;;;;;;19.97;83.79;100235.84;7652654;23;20227;-89
2022/07/26 05:58:26;;;;;;;8.75;2.60;;;;;;;19.94;83.92;100238.81;7655482;23;20322;-89
2022/07/26 06:01:31;;;;;;;6.57;2.65;;;;;;;19.81;84.58;100251.84;7683124;23;20020;-89
2022/07/26 06:04:42;;;;;;;21.00;3.00;;;;;;;19.76;85.34;100247.16;7654860;23;20043;-89
2022/07/26 06:07:48;;;;;;;5.55;2.45;;;;;;;19.83;85.72;100262.19;7654622;23;20268;-90
2022/07/26 06:10:54;;;;;;;6.43;2.70;;;;;;;19.88;84.45;100252.72;7655803;23;20353;-91
2022/07/26 06:13:56;;;;;;;3.70;2.42;;;;;;;19.86;85.02;100251.28;7659180;23;20504;-91
2022/07/26 06:17:03;;;;;;;6.97;2.58;;;;;;;19.91;85.37;100251.53;7685502;23;20012;-91
2022/07/26 06:20:06;;;;;;;5.43;2.92;;;;;;;20.08;83.48;100255.50;7682067;23;20547;-89
2022/07/26 06:23:10;;;;;;;6.10;2.85;;;;;;;20.22;82.42;100267.75;7658616;23;20094;-92
2022/07/26 06:26:25;;;;;;;12.88;3.22;;;;;;;20.12;82.92;100267.28;7639446;23;20078;-90
2022/07/26 06:29:28;;;;;;;5.72;3.00;;;;;;;20.08;83.89;100268.66;7636103;23;20501;-92
2022/07/26 06:32:33;;;;;;;7.38;2.85;;;;;;;19.92;84.27;100269.72;7665282;23;20510;-89
2022/07/26 06:35:38;;;;;;;5.82;2.55;;;;;;;19.96;84.84;100263.09;7659178;23;20201;-89
2022/07/26 06:38:40;;;;;;;11.05;2.88;;;;;;;20.07;83.86;100268.84;7656104;23;20273;-91
2022/07/26 06:41:42;;;;;;;6.60;2.90;;;;;;;20.17;83.56;100259.63;7669398;22;20455;-89
2022/07/26 06:44:46;;;;;;;6.20;3.55;;;;;;;20.39;81.18;100262.19;7668357;22;20214;-95
2022/07/26 06:47:49;;;;;;;5.43;3.17;;;;;;;20.12;82.09;100263.81;7717681;22;20024;-92
2022/07/26 06:50:54;;;;;;;4.70;2.90;;;;;;;20.22;81.87;100266.94;7693716;22;20608;-90
2022/07/26 06:53:57;;;;;;;7.35;2.60;;;;;;;20.28;80.89;100257.50;7698614;22;20232;-91
2022/07/26 06:57:04;;;;;;;4.72;2.80;;;;;;;20.42;80.92;100264.44;7718437;22;20198;-89
2022/07/26 07:00:08;;;;;;;4.82;3.00;;;;;;;20.97;78.36;100262.78;7691957;22;20026;-91
2022/07/26 07:03:12;;;;;;;6.88;3.25;;;;;;;21.29;76.96;100260.44;7689057;22;20020;-90
2022/07/26 07:06:15;;;;;;;4.32;2.90;;;;;;;21.53;75.57;100266.22;7698327;22;20276;-88
2022/07/26 07:09:17;;;;;;;6.50;2.63;;;;;;;21.71;74.48;100274.34;7690596;22;20176;-92
2022/07/26 07:12:20;;;;;;;9.10;3.33;;;;;;;21.60;74.58;100267.84;7698888;22;20213;-91
2022/07/26 07:15:27;;;;;;;6.32;2.70;;;;;;;21.27;76.46;100270.38;7721398;22;20170;-92
2022/07/26 07:18:33;;;;;;;6.90;2.80;;;;;;;21.00;77.29;100262.38;7662039;23;20401;-88
2022/07/26 07:21:35;;;;;;;6.93;2.80;;;;;;;21.08;77.48;100275.38;7663266;23;20205;-90
2022/07/26 07:24:40;;;;;;;7.47;3.20;;;;;;;21.53;75.76;100263.59;7632569;23;20488;-89
2022/07/26 07:27:47;;;;;;;7.28;2.65;;;;;;;21.92;73.10;100257.56;7658256;23;20020;-90
2022/07/26 07:30:59;;;;;;;4.80;2.67;;;;;;;21.93;71.65;100272.34;7686862;23;20501;-90
2022/07/26 07:34:07;;;;;;;8.98;2.97;;;;;;;22.01;71.23;100271.34;7641631;23;20320;-91
2022/07/26 07:37:14;;;;;;;4.60;2.28;;;;;;;21.97;70.91;100272.78;7656831;23;20347;-90
2022/07/26 07:40:20;;;;;;;5.10;2.40;;;;;;;21.78;70.67;100277.00;7667366;23;20244;-93
2022/07/26 07:43:35;;;;;;;5.28;2.70;;;;;;;21.63;71.89;100278.00;7664855;23;20391;-92
2022/07/26 07:46:38;;;;;;;11.18;3.03;;;;;;;21.87;69.87;100278.44;7692540;23;20024;-89
2022/07/26 07:49:40;;;;;;;6.18;2.78;;;;;;;21.87;69.93;100286.34;7683138;23;20321;-91
2022/07/26 07:52:42;;;;;;;6.72;2.80;;;;;;;22.11;69.01;100280.50;7681298;23;20363;-91
2022/07/26 07:55:44;;;;;;;8.20;3.42;;;;;;;22.07;68.31;100287.16;7679710;23;20020;-91
2022/07/26 07:58:51;;;;;;;6.80;2.42;;;;;;;21.98;69.91;100275.19;7659428;23;20020;-94
2022/07/26 08:01:58;;;;;;;5.75;2.85;;;;;;;22.20;68.56;100288.22;7632759;23;20016;-91
2022/07/26 08:05:00;;;;;;;9.13;2.88;;;;;;;22.50;68.05;100285.94;7653679;23;20385;-90
2022/07/26 08:08:15;;;;;;;7.00;2.40;;;;;;;22.50;66.06;100289.41;7732558;23;20177;-90
2022/07/26 08:11:17;;;;;;;8.98;2.80;;;;;;;22.72;63.92;100281.25;7734695;23;20031;-89
2022/07/26 08:14:19;;;;;;;4.55;2.70;;;;;;;22.92;61.46;100289.09;7733841;23;20127;-92
2022/07/26 08:17:21;;;;;;;4.55;2.70;;;;;;;22.68;62.81;100293.22;7711019;23;20134;-92
2022/07/26 08:20:24;;;;;;;6.28;3.03;;;;;;;22.57;64.38;100292.03;7737584;23;20027;-93
2022/07/26 08:23:26;;;;;;;7.10;2.60;;;;;;;22.32;62.76;100305.03;7735573;23;20024;-92
2022/07/26 08:26:28;;;;;;;5.88;2.20;;;;;;;22.46;62.58;100293.47;7737237;23;20366;-92
2022/07/26 08:29:30;;;;;;;6.63;2.53;;;;;;;22.37;63.46;100302.59;7735783;23;20023;-90
2022/07/26 08:32:32;;;;;;;3.67;2.55;;;;;;;22.40;62.76;100301.38;7711079;23;20024;-91
2022/07/26 08:35:34;;;;;;;4.13;2.60;;;;;;;22.33;63.87;100311.94;7737419;23;20016;-91
2022/07/26 08:38:36;;;;;;;4.22;2.28;;;;;;;22.65;61.80;100314.75;7739175;23;20044;-91
2022/07/26 08:41:39;;;;;;;10.18;2.33;;;;;;;22.59;62.42;100358.59;7737153;23;20052;-91
2022/07/26 08:44:43;;;;;;;2.03;1.00;;;;;;;21.99;69.56;100358.53;7738610;23;20027;-90
2022/07/26 08:47:45;;;;;;;1.20;1.10;;;;;;;21.47;73.93;100352.91;7737730;23;20026;-93
2022/07/26 08:51:08;;;;;;;1.35;1.00;;;;;;;21.41;76.97;100360.78;7737149;23;20026;-87
2022/07/26 08:54:14;;;;;;;2.72;1.35;;;;;;;21.42;78.32;100378.22;7737559;23;20087;-96
2022/07/26 08:57:16;;;;;;;2.33;1.20;;;;;;;21.14;79.34;100386.97;7737266;23;20038;-90
2022/07/26 09:00:23;;;;;;;1.52;1.23;;;;;;;21.06;78.07;100380.00;7737147;23;20374;-90
2022/07/26 09:03:25;;;;;;;1.23;0.88;;;;;;;21.00;77.07;100401.06;7736293;23;20363;-90
2022/07/26 09:06:27;;;;;;;2.13;0.77;;;;;;;21.06;76.31;100403.72;7709628;23;20026;-90
2022/07/26 09:09:34;;;;;;;1.25;0.90;;;;;;;21.06;75.54;100405.53;7736067;22;20031;-89
2022/07/26 09:12:37;;;;;;;1.95;0.80;;;;;;;20.97;76.33;100401.44;7710341;23;20016;-89
2022/07/26 09:15:39;;;;;;;2.97;0.80;;;;;;;20.91;75.80;100434.56;7738700;23;20016;-89
2022/07/26 09:18:41;;;;;;;1.83;0.90;;;;;;;20.71;75.80;100431.00;7736923;23;20647;-90
2022/07/26 09:21:43;;;;;;;1.52;1.10;;;;;;;20.20;78.24;100429.28;7737954;23;20040;-89
2022/07/26 09:24:46;;;;;;;1.85;1.00;;;;;;;19.87;82.27;100450.72;7739624;23;20043;-88
2022/07/26 09:27:48;;;;;;;2.70;1.30;;;;;;;19.17;91.83;100449.34;7712673;23;20020;-89
2022/07/26 09:30:56;;;;;;;2.90;1.25;;;;;;;18.93;97.95;100447.78;7739978;23;20020;-87
2022/07/26 09:33:58;;;;;;;2.58;1.30;;;;;;;18.83;100.00;100449.84;7738632;23;20020;-87
2022/07/26 09:37:00;;;;;;;2.92;1.45;;;;;;;18.92;100.00;100459.28;7739283;23;20023;-86
2022/07/26 09:40:07;;;;;;;2.13;1.45;;;;;;;19.13;100.00;100454.16;7739181;23;20024;-91
2022/07/26 09:43:09;;;;;;;2.88;1.55;;;;;;;19.04;100.00;100462.28;7712485;23;20451;-91
2022/07/26 09:46:16;;;;;;;4.10;1.58;;;;;;;19.07;100.00;100456.69;7739711;23;20020;-89
2022/07/26 09:49:20;;;;;;;2.80;2.10;;;;;;;19.20;100.00;100449.00;7711594;23;20024;-90
2022/07/26 09:52:22;;;;;;;3.22;1.95;;;;;;;19.30;100.00;100438.25;7739453;23;20023;-89
2022/07/26 09:55:23;;;;;;;2.92;1.55;;;;;;;19.42;100.00;100443.84;7711356;23;20107;-91
2022/07/26 09:58:27;;;;;;;2.22;1.73;;;;;;;19.28;100.00;100443.69;7711904;23;20020;-90
2022/07/26 10:01:29;;;;;;;5.20;1.77;;;;;;;19.32;100.00;100446.75;7736352;23;20020;-89
2022/07/26 10:04:31;;;;;;;1.90;1.80;;;;;;;19.45;100.00;100457.47;7736827;23;20027;-90
2022/07/26 10:07:33;;;;;;;4.05;2.00;;;;;;;19.73;100.00;100468.16;7737826;23;20082;-91
2022/07/26 10:10:59;;;;;;;3.17;2.10;;;;;;;20.19;99.63;100461.81;7738818;23;20027;-90
2022/07/26 10:14:39;;;;;;;2.67;2.00;;;;;;;20.85;95.96;100477.47;7741103;23;20116;-91
2022/07/26 10:17:41;;;;;;;3.67;1.80;;;;;;;21.48;89.42;100475.69;7740979;23;20020;-88
2022/07/26 10:20:50;;;;;;;4.60;2.05;;;;;;;21.83;89.49;100488.03;7738901;23;20021;-88
2022/07/26 10:23:59;;;;;;;3.53;1.88;;;;;;;22.07;85.77;100484.06;7738756;23;20409;-88
2022/07/26 10:27:02;;;;;;;5.63;1.85;;;;;;;22.29;85.47;100493.50;7739458;23;20438;-90
2022/07/26 10:30:16;;;;;;;5.40;2.13;;;;;;;22.27;83.85;100495.53;7713129;23;20020;-90
2022/07/26 10:33:23;;;;;;;2.00;1.80;;;;;;;21.99;83.72;100490.34;7741088;23;20102;-90
2022/07/26 10:36:42;;;;;;;2.00;1.80;;;;;;;21.60;83.86;100520.75;7741091;23;20447;-89
2022/07/26 10:39:44;;;;;;;4.33;1.70;;;;;;;20.99;86.00;100518.69;7740757;23;20461;-91
2022/07/26 10:42:46;;;;;;;2.10;1.80;;;;;;;20.99;87.33;100523.09;7741661;23;20020;-92
2022/07/26 10:45:47;;;;;;;2.72;1.40;;;;;;;21.10;88.92;100516.53;7735265;23;20043;-94
2022/07/26 10:48:55;;;;;;;2.05;1.35;;;;;;;21.30;85.48;100517.47;7738931;23;20020;-96
2022/07/26 10:52:08;;;;;;;2.17;1.40;;;;;;;21.16;86.85;100518.38;7742807;23;20016;-94
2022/07/26 10:55:10;;;;;;;1.90;1.20;;;;;;;21.01;85.35;100536.88;7752737;23;20026;-95
2022/07/26 10:58:13;;;;;;;1.20;0.50;;;;;;;20.98;77.24;100545.16;7757804;23;20075;-95
2022/07/26 11:01:21;;;;;;;2.20;0.52;;;;;;;20.87;76.31;100535.97;7741816;23;20016;-96
2022/07/26 11:04:24;;;;;;;2.15;0.85;;;;;;;20.78;79.74;100551.06;7741475;23;20032;-95
2022/07/26 11:07:45;;;;;;;1.65;0.40;;;;;;;20.92;74.57;100544.13;7741384;23;20466;-96
2022/07/26 11:10:47;;;;;;;1.63;0.80;;;;;;;21.15;76.41;100551.00;7715913;23;20107;-94
2022/07/26 11:13:49;;;;;;;0.93;0.55;;;;;;;21.39;74.97;100542.72;7720686;23;20404;-95
2022/07/26 11:16:51;;;;;;;1.63;0.60;;;;;;;21.52;74.66;100541.97;7741011;23;20027;-95
2022/07/26 11:19:53;;;;;;;2.25;0.65;;;;;;;21.60;74.82;100551.56;7719375;23;20024;-94
2022/07/26 11:22:55;;;;;;;1.75;0.40;;;;;;;21.79;72.83;100540.31;7715358;23;20020;-96
2022/07/26 11:26:00;;;;;;;0.43;0.40;;;;;;;22.00;73.00;100534.13;7715394;23;20024;-94
2022/07/26 11:29:03;;;;;;;1.92;0.43;;;;;;;22.63;70.01;100535.78;7714725;23;20107;-95
2022/07/26 11:32:24;;;;;;;0.60;0.45;;;;;;;23.22;65.20;100553.53;7690124;23;20016;-94
2022/07/26 11:35:26;;;;;;;2.10;0.40;;;;;;;22.85;67.18;100542.50;7740702;23;20020;-95
2022/07/26 11:38:47;;;;;;;1.58;0.45;;;;;;;22.52;69.15;100548.53;7698157;23;20024;-96
2022/07/26 11:41:51;;;;;;;1.25;0.85;;;;;;;22.67;71.23;100542.28;7714221;23;20020;-93
2022/07/26 11:44:52;;;;;;;1.40;0.30;;;;;;;22.97;65.51;100550.66;7691452;23;20020;-94
2022/07/26 11:47:57;;;;;;;0.60;0.43;;;;;;;22.92;63.81;100553.88;7741579;23;20354;-94
2022/07/26 11:51:14;;;;;;;1.08;0.40;;;;;;;23.35;61.24;100553.53;7741571;23;20232;-94
2022/07/26 11:54:16;;;;;;;2.80;0.50;;;;;;;23.65;60.31;100553.06;7742150;23;20012;-94
2022/07/26 11:57:18;;;;;;;2.13;0.52;;;;;;;23.81;58.44;100552.66;7713823;23;20465;-94
2022/07/26 12:00:22;;;;;;;2.28;0.40;;;;;;;23.53;59.80;100552.09;7739955;23;20020;-93
2022/07/26 12:03:24;;;;;;;1.90;0.57;;;;;;;23.10;61.80;100548.03;7714292;23;20131;-92
2022/07/26 12:06:26;;;;;;;2.35;0.50;;;;;;;23.04;62.96;100548.06;7713788;23;20050;-95
2022/07/26 12:09:39;;;;;;;1.67;0.70;;;;;;;23.67;60.02;100550.22;7714555;23;20048;-90
2022/07/26 12:12:41;;;;;;;2.45;0.63;;;;;;;24.45;55.98;100552.81;7740914;23;20031;-91
2022/07/26 12:15:49;;;;;;;0.68;0.30;;;;;;;24.28;54.90;100548.00;7740455;23;20328;-91
2022/07/26 12:18:51;;;;;;;1.55;0.60;;;;;;;23.80;56.73;100558.97;7740217;23;20469;-90
2022/07/26 12:22:11;;;;;;;1.33;0.65;;;;;;;22.94;60.58;100557.16;7740392;23;20342;-90
2022/07/26 12:25:24;;;;;;;0.88;0.70;;;;;;;22.45;63.06;100557.44;7739780;23;20434;-90
2022/07/26 12:28:46;;;;;;;1.58;0.70;;;;;;;22.11;65.92;100559.94;7738415;23;20062;-89
2022/07/26 12:32:11;;;;;;;1.33;0.57;;;;;;;21.79;67.72;100571.09;7737613;23;20012;-90
2022/07/26 12:35:15;;;;;;;1.88;0.80;;;;;;;21.33;70.32;100563.69;7738418;23;20035;-90
2022/07/26 12:38:17;;;;;;;2.83;0.63;;;;;;;21.19;70.89;100566.22;7739859;23;20016;-90
2022/07/26 12:41:38;;;;;;;1.50;0.70;;;;;;;21.01;72.12;100574.53;7740468;23;20027;-90
2022/07/26 12:44:41;;;;;;;4.07;1.17;;;;;;;21.21;70.88;100572.09;7714088;23;20497;-92
2022/07/26 12:47:46;;;;;;;2.03;0.70;;;;;;;21.40;68.19;100581.19;7743373;23;20031;-89
2022/07/26 12:50:48;;;;;;;1.50;0.50;;;;;;;21.75;64.74;100572.53;7741276;23;20020;-89
2022/07/26 12:53:50;;;;;;;1.83;0.50;;;;;;;22.05;62.61;100566.00;7742034;23;20020;-89
2022/07/26 12:56:52;;;;;;;1.05;0.60;;;;;;;22.10;63.27;100573.31;7743257;23;20027;-90
2022/07/26 12:59:55;;;;;;;1.17;0.60;;;;;;;22.54;60.58;100562.34;7716639;23;20020;-92
2022/07/26 13:02:56;;;;;;;3.08;0.57;;;;;;;23.02;58.85;100568.56;7743613;23;20027;-91
2022/07/26 13:05:58;;;;;;;1.00;0.60;;;;;;;23.28;57.83;100571.22;7716424;23;20386;-90
2022/07/26 13:09:00;;;;;;;1.30;0.50;;;;;;;23.61;55.80;100565.09;7742900;23;20522;-92
2022/07/26 13:12:04;;;;;;;2.13;0.55;;;;;;;23.96;54.48;100568.28;7741912;23;20027;-89
2022/07/26 13:15:06;;;;;;;0.63;0.40;;;;;;;24.18;54.09;100571.44;7741375;23;20202;-90
2022/07/26 13:18:08;;;;;;;1.92;0.57;;;;;;;24.59;52.01;100580.03;7741248;23;20118;-91
2022/07/26 13:21:10;;;;;;;1.05;0.57;;;;;;;24.65;51.68;100576.56;7742051;23;20034;-91
2022/07/26 13:24:12;;;;;;;1.08;0.40;;;;;;;24.81;50.61;100572.56;7742494;23;20035;-92
2022/07/26 13:27:17;;;;;;;2.47;0.70;;;;;;;24.94;51.28;100580.41;7742388;23;20071;-90
2022/07/26 13:30:20;;;;;;;1.85;0.52;;;;;;;24.79;50.75;100579.91;7715547;23;20016;-90
2022/07/26 13:33:22;;;;;;;2.35;0.50;;;;;;;24.54;51.89;100564.78;7742130;23;20013;-90
2022/07/26 13:36:25;;;;;;;1.10;0.70;;;;;;;24.52;50.19;100568.66;7742192;23;20031;-90
2022/07/26 13:39:28;;;;;;;2.45;0.73;;;;;;;24.33;51.95;100573.84;7741335;23;20020;-90
2022/07/26 13:42:32;;;;;;;0.73;0.40;;;;;;;24.29;54.27;100570.78;7690473;23;20052;-90
2022/07/26 13:45:34;;;;;;;2.33;0.80;;;;;;;24.21;51.00;100594.84;7715189;23;20020;-90
2022/07/26 13:48:36;;;;;;;2.33;0.90;;;;;;;23.91;52.22;100576.03;7742303;23;20031;-90
2022/07/26 13:52:01;;;;;;;6.38;1.33;;;;;;;23.99;52.21;100582.91;7741953;23;20027;-93
2022/07/26 13:55:04;;;;;;;1.27;0.60;;;;;;;24.06;51.58;100589.00;7714670;23;20067;-92
2022/07/26 13:58:07;;;;;;;3.97;0.70;;;;;;;23.74;52.27;100602.09;7714401;23;20458;-93
2022/07/26 14:01:11;;;;;;;2.85;0.88;;;;;;;23.37;54.04;100599.03;7742322;23;20143;-91
2022/07/26 14:04:14;;;;;;;2.50;1.02;;;;;;;23.02;54.80;100597.59;7715425;23;20415;-90
2022/07/26 14:07:17;;;;;;;2.85;0.82;;;;;;;22.86;55.34;100601.41;7715069;23;20032;-90
2022/07/26 14:10:20;;;;;;;1.85;0.75;;;;;;;22.86;55.07;100618.06;7741451;23;20016;-90
2022/07/26 14:13:22;;;;;;;2.75;0.88;;;;;;;22.74;55.35;100603.81;7715462;23;20027;-90
2022/07/26 14:16:26;;;;;;;1.95;0.60;;;;;;;22.97;54.56;100606.94;7742182;23;20016;-90
2022/07/26 14:19:28;;;;;;;2.25;0.82;;;;;;;23.25;51.76;100615.69;7741555;23;20363;-89